Red Iron Lake, South Dakota
Current Conditions -  °F | °C
As of 1:35 PM on Tuesday 21 Oct 2014 (Local Time) from KGWR Reporting Station
Clear Clear  
Wind Chill: 66°   Ceiling: Unl
Heat Index: 66°   Visibility: 10mi
Dew Point: 43°   Wind: 22mph
Humidity: 43%   Direction: 130°SE
Pressure: 29.91"   Gusts: NA
Location:  45.6965°N, 97.3492°W
Report Text: KGWR 211835Z AUTO 13019KT 10SM CLR 19/06 A2991 RMK A01 P000
Loading
Personal Weather Stations






























Interactive Weather Map
Tropical Storm Tracking
New forecast layout! Learn more

10-Day Weather Forecast

Advertisements
Track Severe Weather on mobile